createdAt,value
2023-01-11T00:02:05.801Z,5.79
2023-01-11T00:07:07.736Z,5.78
2023-01-11T00:12:12.426Z,5.78
2023-01-11T00:17:14.403Z,5.80
2023-01-11T00:22:16.403Z,5.81
2023-01-11T00:27:18.289Z,5.83
2023-01-11T00:32:20.284Z,5.83
2023-01-11T00:37:22.287Z,5.79
2023-01-11T00:42:42.703Z,5.77
2023-01-11T00:48:04.985Z,5.77
2023-01-11T00:53:08.434Z,5.72
2023-01-11T00:58:10.441Z,5.67
2023-01-11T01:03:12.327Z,5.63
2023-01-11T01:08:14.114Z,5.64
2023-01-11T01:13:34.418Z,5.68
2023-01-11T01:18:36.220Z,5.67
2023-01-11T01:23:38.300Z,5.71
2023-01-11T01:28:40.192Z,5.72
2023-01-11T01:33:42.201Z,5.77
2023-01-11T01:38:43.992Z,5.78
2023-01-11T01:43:58.094Z,5.77
2023-01-11T01:49:13.784Z,5.80
2023-01-11T01:54:22.528Z,5.79
2023-01-11T01:59:26.719Z,5.78
2023-01-11T02:04:32.893Z,5.74
2023-01-11T02:09:56.923Z,5.76
2023-01-11T02:15:01.529Z,5.74
2023-01-11T02:20:12.483Z,5.75
2023-01-11T02:25:26.251Z,5.76
2023-01-11T02:30:54.761Z,5.74
2023-01-11T02:36:05.860Z,5.69
2023-01-11T02:41:24.733Z,5.64
2023-01-11T02:46:42.105Z,5.65
2023-01-11T02:51:59.290Z,5.66
2023-01-11T02:57:02.790Z,5.67
2023-01-11T03:02:05.004Z,5.64
2023-01-11T03:07:31.798Z,5.64
2023-01-11T03:13:04.628Z,5.60
2023-01-11T03:18:40.461Z,5.56
2023-01-11T03:23:49.473Z,5.52
2023-01-11T03:29:19.579Z,5.51
2023-01-11T03:34:49.386Z,5.49
2023-01-11T03:40:04.518Z,5.53
2023-01-11T03:45:06.934Z,5.55
2023-01-11T03:50:13.636Z,5.56
2023-01-11T03:55:16.947Z,5.53
2023-01-11T04:00:23.365Z,5.54
2023-01-11T04:05:25.931Z,5.55
2023-01-11T04:10:28.096Z,5.57
2023-01-11T04:15:35.139Z,5.59
2023-01-11T04:20:40.821Z,5.63
2023-01-11T04:25:42.669Z,5.66
2023-01-11T04:30:44.687Z,5.68
2023-01-11T04:35:47.252Z,5.70
2023-01-11T04:40:48.993Z,5.74
2023-01-11T04:45:50.735Z,5.76
2023-01-11T04:50:52.898Z,5.76
2023-01-11T04:55:54.659Z,5.79
2023-01-11T05:00:56.669Z,5.81
2023-01-11T05:06:00.365Z,5.84
2023-01-11T05:11:04.877Z,5.82
2023-01-11T05:16:07.336Z,5.84
2023-01-11T05:21:10.897Z,5.85
2023-01-11T05:26:18.893Z,5.79
2023-01-11T05:31:20.807Z,5.72
2023-01-11T05:36:24.338Z,5.69
2023-01-11T05:41:27.529Z,5.65
2023-01-11T05:46:29.842Z,5.63
2023-01-11T05:51:32.790Z,5.55
2023-01-11T05:56:34.864Z,5.54
2023-01-11T06:01:36.764Z,5.55
2023-01-11T06:06:38.602Z,5.57
2023-01-11T06:11:40.413Z,5.62
2023-01-11T06:16:42.315Z,5.60
2023-01-11T06:21:44.192Z,5.58
2023-01-11T06:26:45.964Z,5.57
2023-01-11T06:31:48.009Z,5.62
2023-01-11T06:36:49.768Z,5.67
2023-01-11T06:41:51.500Z,5.65
2023-01-11T06:46:53.525Z,5.68
2023-01-11T06:51:55.354Z,5.72
2023-01-11T06:56:57.021Z,5.72
2023-01-11T07:01:59.300Z,5.80
2023-01-11T07:07:01.267Z,5.84
2023-01-11T07:12:03.240Z,5.89
2023-01-11T07:17:05.145Z,5.94
2023-01-11T07:22:08.165Z,5.99
2023-01-11T07:27:09.915Z,6.01
2023-01-11T07:32:11.838Z,6.04
2023-01-11T07:37:28.145Z,6.07
2023-01-11T07:42:49.705Z,6.10
2023-01-11T07:47:54.141Z,6.12
2023-01-11T07:52:55.983Z,6.14
2023-01-11T07:57:57.888Z,6.14
2023-01-11T08:03:00.719Z,6.14
2023-01-11T08:08:02.889Z,6.17
2023-01-11T08:13:23.108Z,6.20
2023-01-11T08:18:25.080Z,6.20
2023-01-11T08:23:27.431Z,6.24
2023-01-11T08:28:29.251Z,6.23
2023-01-11T08:33:30.989Z,6.22
2023-01-11T08:38:32.939Z,6.25
2023-01-11T08:43:34.844Z,6.27
2023-01-11T08:48:37.040Z,6.24
2023-01-11T08:53:39.032Z,6.25
2023-01-11T08:58:40.814Z,6.26
2023-01-11T09:03:42.556Z,6.28
2023-01-11T09:08:44.519Z,6.29
2023-01-11T09:13:46.619Z,6.33
2023-01-11T09:18:48.479Z,6.38
2023-01-11T09:23:50.386Z,6.37
2023-01-11T09:28:52.217Z,6.42
2023-01-11T09:33:54.338Z,6.44
2023-01-11T09:38:58.002Z,6.48
2023-01-11T09:44:16.703Z,6.56
2023-01-11T09:49:28.315Z,6.61
2023-01-11T09:54:30.151Z,6.65
2023-01-11T09:59:50.852Z,6.69
2023-01-11T10:05:26.217Z,6.73
2023-01-11T10:18:40.004Z,6.78
2023-01-11T10:22:00.559Z,6.91
2023-01-11T10:27:04.242Z,6.99
2023-01-11T10:32:34.891Z,7.09
2023-01-11T10:38:02.736Z,7.23
2023-01-11T10:43:22.797Z,7.31
2023-01-11T10:48:35.764Z,7.40
2023-01-11T10:54:14.522Z,7.53
2023-01-11T10:59:38.243Z,7.63
2023-01-11T11:05:05.223Z,7.70
2023-01-11T11:10:14.518Z,7.72
2023-01-11T11:15:41.153Z,7.77
2023-01-11T11:20:44.309Z,7.84
2023-01-11T11:25:56.304Z,7.96
2023-01-11T11:31:02.863Z,8.09
2023-01-11T11:36:13.507Z,8.15
2023-01-11T11:41:17.414Z,8.20
2023-01-11T11:46:26.628Z,8.25
2023-01-11T11:51:28.715Z,8.28
2023-01-11T11:56:41.430Z,8.32
2023-01-11T12:01:47.768Z,8.37
2023-01-11T12:07:17.205Z,8.35
2023-01-11T12:12:22.552Z,8.32
2023-01-11T12:17:26.749Z,8.31
2023-01-11T12:22:29.387Z,8.27
2023-01-11T12:27:58.581Z,8.26
2023-01-11T12:33:22.371Z,8.26
2023-01-11T12:38:30.779Z,8.32
2023-01-11T12:43:38.891Z,8.31
2023-01-11T12:48:55.091Z,8.31
2023-01-11T12:54:30.865Z,8.30
2023-01-11T13:00:06.485Z,8.28
2023-01-11T13:05:15.531Z,8.28
2023-01-11T13:10:31.500Z,8.31
2023-01-11T13:15:44.075Z,8.35
2023-01-11T13:21:01.788Z,8.39
2023-01-11T13:26:16.744Z,8.39
2023-01-11T13:31:19.600Z,8.37
2023-01-11T13:36:28.969Z,8.41
2023-01-11T13:41:38.249Z,8.43
2023-01-11T13:47:08.243Z,8.37
2023-01-11T13:52:28.462Z,8.37
2023-01-11T13:57:35.599Z,8.38
2023-01-11T14:02:46.718Z,8.36
2023-01-11T14:07:48.250Z,8.35
2023-01-11T14:13:14.494Z,8.35
2023-01-11T14:18:40.079Z,8.35
2023-01-11T14:23:51.884Z,8.29
2023-01-11T14:29:27.802Z,8.27
2023-01-11T14:34:51.373Z,8.27
2023-01-11T14:40:18.155Z,8.23
2023-01-11T14:45:43.348Z,8.25
2023-01-11T14:51:20.901Z,8.27
2023-01-11T14:56:37.626Z,8.27
2023-01-11T15:02:04.474Z,8.26
2023-01-11T15:07:34.023Z,8.28
2023-01-11T15:12:38.595Z,8.28
2023-01-11T15:18:00.776Z,8.29
2023-01-11T15:23:05.986Z,8.30
2023-01-11T15:28:46.312Z,8.30
2023-01-11T15:33:49.089Z,8.33
2023-01-11T15:39:03.138Z,8.35
2023-01-11T15:44:33.547Z,8.33
2023-01-11T15:49:38.241Z,8.38
2023-01-11T15:54:51.147Z,8.40
2023-01-11T16:00:17.880Z,8.45
2023-01-11T16:05:31.237Z,8.46
2023-01-11T16:10:44.848Z,8.48
2023-01-11T16:15:55.306Z,8.51
2023-01-11T16:21:08.193Z,8.55
2023-01-11T16:26:17.159Z,8.57
2023-01-11T16:31:20.243Z,8.63
2023-01-11T16:36:24.060Z,8.71
2023-01-11T16:41:30.775Z,8.75
2023-01-11T16:46:47.717Z,8.82
2023-01-11T16:51:49.546Z,8.87
2023-01-11T16:56:51.703Z,8.96
2023-01-11T17:01:59.090Z,9.01
2023-01-11T17:07:25.260Z,9.04
2023-01-11T17:12:27.497Z,9.10
2023-01-11T17:17:35.656Z,9.14
2023-01-11T17:22:38.187Z,9.18
2023-01-11T17:27:50.994Z,9.22
2023-01-11T17:32:55.427Z,9.27
2023-01-11T17:37:59.858Z,9.31
2023-01-11T17:43:40.176Z,9.33
2023-01-11T17:48:55.843Z,9.36
2023-01-11T17:53:58.379Z,9.38
2023-01-11T17:59:24.323Z,9.41
2023-01-11T18:04:27.794Z,9.41
2023-01-11T18:09:32.140Z,9.42
2023-01-11T18:14:47.195Z,9.42
2023-01-11T18:19:48.986Z,9.42
2023-01-11T18:24:55.252Z,9.46
2023-01-11T18:30:01.810Z,9.47
2023-01-11T18:35:04.284Z,9.47
2023-01-11T18:40:10.905Z,9.46
2023-01-11T18:45:14.042Z,9.47
2023-01-11T18:50:19.362Z,9.50
2023-01-11T18:55:23.176Z,9.51
2023-01-11T19:00:25.235Z,9.52
2023-01-11T19:05:27.539Z,9.55
2023-01-11T19:10:29.703Z,9.59
2023-01-11T19:15:34.687Z,9.59
2023-01-11T19:20:37.594Z,9.60
2023-01-11T19:25:39.464Z,9.61
2023-01-11T19:30:41.452Z,9.65
2023-01-11T19:35:44.565Z,9.69
2023-01-11T19:40:48.450Z,9.71
2023-01-11T19:45:58.324Z,9.70
2023-01-11T19:51:10.251Z,9.70
2023-01-11T19:56:12.351Z,9.70
2023-01-11T20:01:14.641Z,9.70
2023-01-11T20:06:16.691Z,9.72
2023-01-11T20:11:19.653Z,9.74
2023-01-11T20:16:23.738Z,9.74
2023-01-11T20:21:28.921Z,9.75
2023-01-11T20:26:34.362Z,9.73
2023-01-11T20:31:36.403Z,9.74
2023-01-11T20:36:38.316Z,9.72
2023-01-11T20:41:49.789Z,9.68
2023-01-11T20:46:52.735Z,9.70
2023-01-11T20:51:54.612Z,9.71
2023-01-11T20:57:02.261Z,9.71
2023-01-11T21:02:04.321Z,9.66
2023-01-11T21:07:06.144Z,9.62
2023-01-11T21:12:09.528Z,9.58
2023-01-11T21:17:11.719Z,9.57
2023-01-11T21:22:13.891Z,9.53
2023-01-11T21:27:16.018Z,9.49
2023-01-11T21:32:17.923Z,9.50
2023-01-11T21:37:24.136Z,9.49
2023-01-11T21:42:26.183Z,9.48
2023-01-11T21:47:28.257Z,9.49
2023-01-11T21:52:30.260Z,9.52
2023-01-11T21:57:32.358Z,9.51
2023-01-11T22:02:34.147Z,9.50
2023-01-11T22:07:38.457Z,9.46
2023-01-11T22:12:40.658Z,9.44
2023-01-11T22:17:42.681Z,9.45
2023-01-11T22:22:44.799Z,9.42
2023-01-11T22:27:46.615Z,9.40
2023-01-11T22:32:48.797Z,9.40
2023-01-11T22:37:51.174Z,9.40
2023-01-11T22:42:53.431Z,9.38
2023-01-11T22:47:56.622Z,9.37
2023-01-11T22:52:58.584Z,9.33
2023-01-11T22:58:00.511Z,9.28
2023-01-11T23:03:03.287Z,9.27
2023-01-11T23:08:05.815Z,9.30
2023-01-11T23:13:29.501Z,9.32
2023-01-11T23:18:31.400Z,9.31
2023-01-11T23:23:33.733Z,9.37
2023-01-11T23:28:35.888Z,9.41
2023-01-11T23:33:38.174Z,9.39
2023-01-11T23:38:40.222Z,9.41
2023-01-11T23:43:42.058Z,9.37
2023-01-11T23:48:43.866Z,9.31
2023-01-11T23:53:45.914Z,9.27
2023-01-11T23:58:47.799Z,9.23
